createdAt,value
2023-02-27T00:00:19.737Z,2.94
2023-02-27T00:05:21.458Z,2.58
2023-02-27T00:10:23.014Z,2.75
2023-02-27T00:15:24.722Z,2.71
2023-02-27T00:20:29.683Z,2.71
2023-02-27T00:25:32.162Z,2.81
2023-02-27T00:30:33.762Z,2.89
2023-02-27T00:35:35.364Z,2.88
2023-02-27T00:40:36.919Z,2.82
2023-02-27T00:45:38.386Z,2.94
2023-02-27T00:50:39.883Z,2.91
2023-02-27T00:55:41.415Z,2.94
2023-02-27T01:00:43.533Z,2.95
2023-02-27T01:05:45.012Z,2.92
2023-02-27T01:10:46.833Z,3.00
2023-02-27T01:15:48.319Z,3.09
2023-02-27T01:20:56.305Z,3.19
2023-02-27T01:25:57.883Z,2.92
2023-02-27T01:30:59.435Z,2.59
2023-02-27T01:36:01.046Z,2.80
2023-02-27T01:41:02.912Z,2.81
2023-02-27T01:46:07.105Z,3.00
2023-02-27T01:51:16.666Z,2.72
2023-02-27T01:56:21.017Z,2.71
2023-02-27T02:01:23.196Z,2.72
2023-02-27T02:06:24.779Z,2.88
2023-02-27T02:11:27.445Z,3.01
2023-02-27T02:17:10.974Z,3.11
2023-02-27T02:22:39.701Z,3.07
2023-02-27T02:27:50.923Z,3.04
2023-02-27T02:33:20.290Z,3.02
2023-02-27T02:38:50.826Z,3.01
2023-02-27T02:44:03.298Z,2.65
2023-02-27T02:49:22.909Z,2.72
2023-02-27T02:54:47.979Z,2.80
2023-02-27T02:59:57.723Z,2.57
2023-02-27T03:05:05.447Z,2.66
2023-02-27T03:10:15.837Z,2.67
2023-02-27T03:15:36.601Z,2.73
2023-02-27T03:20:42.572Z,2.73
2023-02-27T03:25:47.705Z,2.78
2023-02-27T03:31:00.999Z,2.62
2023-02-27T03:36:15.611Z,2.73
2023-02-27T03:41:29.707Z,2.75
2023-02-27T03:46:45.936Z,2.61
2023-02-27T03:51:47.495Z,2.59
2023-02-27T03:57:00.606Z,2.71
2023-02-27T04:02:03.885Z,2.77
2023-02-27T04:07:15.636Z,2.82
2023-02-27T04:12:49.398Z,2.87
2023-02-27T04:17:57.884Z,2.76
2023-02-27T04:23:06.324Z,2.60
2023-02-27T04:28:22.198Z,2.72
2023-02-27T04:33:26.702Z,2.85
2023-02-27T04:38:52.731Z,2.92
2023-02-27T04:43:55.633Z,2.78
2023-02-27T04:49:08.462Z,2.73
2023-02-27T04:54:14.502Z,2.53
2023-02-27T04:59:24.873Z,2.74
2023-02-27T05:04:29.805Z,2.77
2023-02-27T05:09:46.980Z,2.76
2023-02-27T05:14:58.489Z,2.92
2023-02-27T05:20:01.253Z,2.89
2023-02-27T05:25:08.765Z,2.93
2023-02-27T05:30:51.845Z,2.86
2023-02-27T05:36:10.231Z,2.65
2023-02-27T05:41:20.342Z,2.89
2023-02-27T05:46:27.447Z,2.80
2023-02-27T05:51:35.340Z,2.81
2023-02-27T05:56:38.315Z,2.72
2023-02-27T06:01:40.457Z,2.74
2023-02-27T06:06:42.055Z,2.59
2023-02-27T06:11:43.638Z,2.76
2023-02-27T06:16:45.185Z,2.60
2023-02-27T06:21:46.678Z,2.47
2023-02-27T06:26:48.125Z,2.74
2023-02-27T06:31:49.657Z,2.07
2023-02-27T06:36:51.205Z,2.15
2023-02-27T06:41:52.702Z,2.49
2023-02-27T06:46:54.161Z,2.68
2023-02-27T06:51:55.622Z,2.53
2023-02-27T06:56:57.270Z,2.85
2023-02-27T07:01:58.851Z,3.08
2023-02-27T07:07:34.631Z,2.99
2023-02-27T07:12:21.752Z,3.09
2023-02-27T07:17:23.239Z,3.13
2023-02-27T07:22:24.771Z,3.15
2023-02-27T07:27:26.301Z,3.27
2023-02-27T07:32:28.168Z,3.28
2023-02-27T07:37:29.740Z,3.38
2023-02-27T07:42:31.369Z,3.54
2023-02-27T07:47:32.848Z,3.59
2023-02-27T07:52:34.313Z,3.62
2023-02-27T07:57:35.789Z,3.60
2023-02-27T08:02:37.720Z,3.37
2023-02-27T08:07:39.239Z,3.63
2023-02-27T08:12:40.697Z,3.77
2023-02-27T08:17:42.171Z,3.74
2023-02-27T08:22:43.611Z,3.81
2023-02-27T08:27:45.109Z,3.71
2023-02-27T08:32:46.584Z,3.71
2023-02-27T08:37:48.118Z,3.72
2023-02-27T08:42:51.277Z,3.46
2023-02-27T08:47:52.984Z,3.72
2023-02-27T08:52:54.460Z,3.67
2023-02-27T08:57:55.944Z,3.69
2023-02-27T09:02:57.469Z,3.85
2023-02-27T09:07:58.982Z,4.24
2023-02-27T09:13:01.318Z,4.24
2023-02-27T09:18:02.876Z,4.26
2023-02-27T09:23:04.504Z,4.17
2023-02-27T09:28:05.977Z,4.14
2023-02-27T09:33:10.221Z,4.22
2023-02-27T09:38:11.681Z,4.21
2023-02-27T09:43:24.061Z,4.12
2023-02-27T09:48:39.194Z,4.12
2023-02-27T09:53:47.516Z,4.01
2023-02-27T09:59:01.167Z,4.01
2023-02-27T10:04:12.720Z,4.13
2023-02-27T10:09:29.938Z,4.04
2023-02-27T10:14:39.529Z,4.09
2023-02-27T10:19:45.092Z,4.07
2023-02-27T10:24:56.917Z,4.08
2023-02-27T10:30:23.526Z,4.00
2023-02-27T10:35:36.957Z,3.96
2023-02-27T10:40:41.159Z,4.00
2023-02-27T10:45:42.635Z,4.01
2023-02-27T10:50:46.750Z,4.06
2023-02-27T10:56:00.261Z,4.07
2023-02-27T11:01:07.724Z,4.08
2023-02-27T11:06:21.531Z,4.19
2023-02-27T11:11:28.504Z,4.15
2023-02-27T11:16:49.491Z,4.22
2023-02-27T11:22:01.772Z,4.21
2023-02-27T11:27:05.211Z,4.14
2023-02-27T11:32:13.950Z,4.21
2023-02-27T11:37:26.883Z,4.22
2023-02-27T11:42:34.544Z,4.36
2023-02-27T11:47:40.311Z,4.45
2023-02-27T11:52:44.770Z,4.38
2023-02-27T11:57:50.330Z,4.35
2023-02-27T12:03:00.934Z,4.49
2023-02-27T12:08:27.839Z,4.52
2023-02-27T12:13:33.534Z,4.58
2023-02-27T12:18:37.866Z,4.31
2023-02-27T12:23:46.447Z,4.22
2023-02-27T12:29:01.417Z,4.54
2023-02-27T12:34:08.900Z,4.35
2023-02-27T12:39:24.823Z,4.60
2023-02-27T12:44:53.776Z,4.66
2023-02-27T12:50:11.655Z,4.32
2023-02-27T12:55:26.023Z,4.68
2023-02-27T13:00:43.030Z,4.58
2023-02-27T13:05:48.031Z,4.72
2023-02-27T13:11:01.452Z,4.72
2023-02-27T13:16:02.847Z,4.19
2023-02-27T13:21:23.188Z,4.38
2023-02-27T13:26:38.394Z,4.32
2023-02-27T13:31:52.791Z,4.47
2023-02-27T13:37:12.592Z,4.43
2023-02-27T13:42:26.283Z,4.22
2023-02-27T13:47:30.715Z,4.22
2023-02-27T13:52:34.840Z,4.22
2023-02-27T13:57:37.921Z,4.25
2023-02-27T14:02:59.909Z,4.13
2023-02-27T14:08:16.404Z,4.03
2023-02-27T14:13:45.671Z,3.93
2023-02-27T14:18:54.755Z,4.06
2023-02-27T14:23:56.414Z,4.14
2023-02-27T14:28:57.888Z,3.83
2023-02-27T14:34:02.088Z,3.86
2023-02-27T14:39:04.191Z,3.92
2023-02-27T14:44:05.733Z,3.72
2023-02-27T14:49:18.812Z,3.75
2023-02-27T14:54:25.887Z,3.75
2023-02-27T15:00:03.215Z,3.76
2023-02-27T15:05:10.527Z,3.73
2023-02-27T15:10:26.388Z,3.80
2023-02-27T15:15:27.955Z,3.22
2023-02-27T15:20:32.849Z,3.17
2023-02-27T15:25:37.808Z,3.72
2023-02-27T15:30:39.344Z,3.71
2023-02-27T15:35:44.100Z,3.61
2023-02-27T15:40:45.637Z,3.62
2023-02-27T15:45:47.911Z,3.66
2023-02-27T15:50:53.873Z,3.65
2023-02-27T15:55:58.638Z,3.63
2023-02-27T16:01:07.679Z,3.57
2023-02-27T16:06:12.855Z,3.21
2023-02-27T16:11:43.468Z,3.06
2023-02-27T16:16:54.900Z,3.34
2023-02-27T16:22:13.753Z,3.34
2023-02-27T16:27:26.803Z,3.41
2023-02-27T16:32:35.006Z,3.44
2023-02-27T16:37:38.762Z,3.35
2023-02-27T16:42:40.599Z,3.28
2023-02-27T16:47:42.145Z,3.16
2023-02-27T16:52:43.655Z,3.22
2023-02-27T16:57:45.201Z,3.18
2023-02-27T17:02:46.685Z,3.03
2023-02-27T17:07:48.203Z,2.55
2023-02-27T17:12:49.794Z,2.75
2023-02-27T17:17:51.298Z,3.06
2023-02-27T17:22:52.897Z,3.04
2023-02-27T17:27:54.439Z,3.20
2023-02-27T17:32:56.558Z,2.99
2023-02-27T17:37:59.427Z,2.99
2023-02-27T17:43:00.937Z,2.77
2023-02-27T17:48:02.421Z,2.83
2023-02-27T17:53:03.904Z,2.62
2023-02-27T17:58:05.537Z,2.47
2023-02-27T18:03:07.004Z,2.45
2023-02-27T18:08:08.460Z,2.37
2023-02-27T18:13:09.950Z,2.45
2023-02-27T18:18:12.160Z,2.46
2023-02-27T18:23:14.570Z,2.40
2023-02-27T18:28:16.099Z,2.36
2023-02-27T18:33:17.689Z,2.36
2023-02-27T18:38:19.178Z,2.39
2023-02-27T18:43:20.702Z,2.48
2023-02-27T18:48:22.235Z,2.55
2023-02-27T18:53:23.731Z,2.47
2023-02-27T18:58:25.302Z,2.44
2023-02-27T19:03:27.781Z,2.46
2023-02-27T19:08:29.409Z,2.50
2023-02-27T19:13:30.855Z,2.38
2023-02-27T19:18:32.365Z,2.37
2023-02-27T19:23:33.965Z,2.47
2023-02-27T19:28:35.460Z,2.51
2023-02-27T19:33:37.132Z,2.44
2023-02-27T19:38:38.755Z,2.47
2023-02-27T19:43:41.267Z,2.44
2023-02-27T19:48:42.790Z,2.42
2023-02-27T19:53:46.214Z,2.33
2023-02-27T19:58:48.215Z,2.31
2023-02-27T20:03:49.739Z,2.36
2023-02-27T20:08:52.294Z,2.27
2023-02-27T20:13:53.746Z,2.32
2023-02-27T20:18:55.447Z,2.33
2023-02-27T20:23:58.016Z,2.34
2023-02-27T20:29:02.160Z,2.30
2023-02-27T20:34:04.671Z,2.31
2023-02-27T20:39:06.888Z,2.24
2023-02-27T20:44:08.894Z,2.20
2023-02-27T20:49:12.591Z,2.18
2023-02-27T20:54:16.079Z,2.17
2023-02-27T20:59:19.175Z,2.21
2023-02-27T21:04:26.522Z,2.25
2023-02-27T21:09:28.063Z,2.27
2023-02-27T21:14:29.558Z,2.22
2023-02-27T21:19:31.130Z,2.27
2023-02-27T21:24:32.595Z,2.32
2023-02-27T21:29:34.074Z,2.27
2023-02-27T21:34:35.588Z,2.36
2023-02-27T21:39:37.117Z,2.38
2023-02-27T21:44:38.663Z,2.37
2023-02-27T21:49:40.142Z,2.24
2023-02-27T21:54:41.659Z,2.19
2023-02-27T21:59:43.145Z,2.23
2023-02-27T22:04:44.627Z,2.30
2023-02-27T22:09:46.243Z,2.33
2023-02-27T22:14:48.480Z,2.34
2023-02-27T22:19:49.974Z,2.31
2023-02-27T22:24:51.420Z,2.33
2023-02-27T22:29:52.891Z,2.38
2023-02-27T22:34:58.348Z,2.46
2023-02-27T22:39:59.875Z,2.40
2023-02-27T22:45:01.362Z,2.42
2023-02-27T22:50:04.423Z,2.43
2023-02-27T22:55:06.622Z,2.42
2023-02-27T23:00:08.801Z,2.41
2023-02-27T23:05:10.677Z,2.46
2023-02-27T23:10:12.167Z,2.46
2023-02-27T23:15:13.766Z,2.52
2023-02-27T23:20:15.254Z,2.64
2023-02-27T23:25:16.744Z,2.57
2023-02-27T23:30:18.332Z,2.62
2023-02-27T23:35:19.801Z,2.63
2023-02-27T23:40:22.509Z,2.65
2023-02-27T23:45:24.087Z,2.65
2023-02-27T23:50:28.834Z,2.60
2023-02-27T23:55:32.648Z,2.74
